^^
Your Local Weather - Clay, NY Station Historical Data
Daily Summary for June 3, 2017 Units:  English    Metric   Both
« Previous Day
Next Day »
Daily Weekly Monthly Yearly Custom
  High: Low: Average:
Temperature: 65.4 °F 44.7 °F 56 °F
Dew Point: 49.9 °F 35.9 °F 43.6 °F
Humidity: 90% 35% 66%
Wind Speed: 5.0mph 0.0mph 1.3mph
Wind Gust: 10.0mph - -
Wind- - WNW
Pressure: 30.00 in 29.91 in -
Precipitation: 0.00 in    
Historical Graphs
 
 
Tabular Data for June 3, 2017
Time Temperature Dew Point Pressure Wind Wind Speed Wind Gust Humidity Rainfall Rate (Hourly) solar
00:00 47.2 °F 42.6 °F 29.93 in Calm     84% 0.00 in 0 W/m2
00:06 47.1 °F 42.8 °F 29.93 in Calm     85% 0.00 in 0 W/m2
00:12 46.9 °F 42.6 °F 29.93 in Calm     85% 0.00 in 0 W/m2
00:18 46.7 °F 42.4 °F 29.93 in Calm     85% 0.00 in 0 W/m2
00:24 46.6 °F 42.3 °F 29.93 in Calm     85% 0.00 in 0 W/m2
00:30 46.4 °F 42.1 °F 29.92 in Calm     85% 0.00 in 0 W/m2
00:36 46.3 °F 42.3 °F 29.92 in Calm     86% 0.00 in 0 W/m2
00:42 46.3 °F 42.3 °F 29.92 in Calm     86% 0.00 in 0 W/m2
00:48 46.3 °F 42.6 °F 29.92 in Calm     87% 0.00 in 0 W/m2
00:54 46.2 °F 42.2 °F 29.92 in Calm     86% 0.00 in 0 W/m2
01:00 46.1 °F 42.4 °F 29.92 in Calm     87% 0.00 in 0 W/m2
01:06 46.0 °F 42.3 °F 29.92 in Calm     87% 0.00 in 0 W/m2
01:12 46.0 °F 42.3 °F 29.92 in Calm     87% 0.00 in 0 W/m2
01:18 46.0 °F 42.3 °F 29.91 in Calm     87% 0.00 in 0 W/m2
01:24 46.0 °F 42.6 °F 29.92 in Calm     88% 0.00 in 0 W/m2
01:30 46.0 °F 42.6 °F 29.92 in Calm     88% 0.00 in 0 W/m2
01:36 45.9 °F 42.5 °F 29.92 in Calm     88% 0.00 in 0 W/m2
01:42 45.9 °F 42.5 °F 29.92 in Calm     88% 0.00 in 0 W/m2
01:48 45.8 °F 42.4 °F 29.92 in Calm     88% 0.00 in 0 W/m2
01:54 45.8 °F 42.4 °F 29.92 in Calm     88% 0.00 in 0 W/m2
02:00 45.7 °F 42.3 °F 29.91 in Calm     88% 0.00 in 0 W/m2
02:06 45.6 °F 42.3 °F 29.92 in Calm     88% 0.00 in 0 W/m2
02:12 45.4 °F 42.1 °F 29.92 in Calm     88% 0.00 in 0 W/m2
02:18 45.3 °F 41.7 °F 29.91 in Calm     87% 0.00 in 0 W/m2
02:24 45.1 °F 41.5 °F 29.91 in Calm     87% 0.00 in 0 W/m2
02:30 45.0 °F 41.4 °F 29.91 in Calm     87% 0.00 in 0 W/m2
02:36 44.9 °F 41.3 °F 29.92 in Calm     87% 0.00 in 0 W/m2
02:42 44.8 °F 41.5 °F 29.92 in Calm     88% 0.00 in 0 W/m2
02:48 44.7 °F 41.4 °F 29.92 in Calm     88% 0.00 in 0 W/m2
02:54 44.7 °F 41.4 °F 29.92 in Calm     88% 0.00 in 0 W/m2
03:00 44.7 °F 41.4 °F 29.92 in Calm     88% 0.00 in 0 W/m2
03:06 44.7 °F 41.7 °F 29.92 in Calm     89% 0.00 in 0 W/m2
03:12 44.7 °F 41.7 °F 29.92 in Calm     89% 0.00 in 0 W/m2
03:18 44.8 °F 41.8 °F 29.92 in Calm     89% 0.00 in 0 W/m2
03:24 44.8 °F 41.8 °F 29.92 in Calm     89% 0.00 in 0 W/m2
03:30 44.9 °F 41.9 °F 29.92 in Calm     89% 0.00 in 0 W/m2
03:36 44.9 °F 41.9 °F 29.92 in Calm     89% 0.00 in 0 W/m2
03:42 45.1 °F 42.1 °F 29.92 in Calm     89% 0.00 in 0 W/m2
03:48 45.4 °F 42.3 °F 29.92 in Calm     89% 0.00 in 0 W/m2
03:54 45.6 °F 42.8 °F 29.92 in Calm     90% 0.00 in 0 W/m2
04:00 45.8 °F 42.7 °F 29.92 in Calm   1.0 mph 89% 0.00 in 0 W/m2
04:06 46.3 °F 43.5 °F 29.92 in Calm   1.0 mph 90% 0.00 in 0 W/m2
04:12 46.8 °F 43.7 °F 29.92 in Calm     89% 0.00 in 0 W/m2
04:18 47.1 °F 44.0 °F 29.92 in Calm     89% 0.00 in 0 W/m2
04:24 47.3 °F 44.2 °F 29.92 in Calm     89% 0.00 in 0 W/m2
04:30 47.5 °F 44.4 °F 29.92 in Calm     89% 0.00 in 0 W/m2
04:36 47.7 °F 44.6 °F 29.92 in Calm     89% 0.00 in 0 W/m2
04:42 47.8 °F 44.4 °F 29.93 in Calm   1.0 mph 88% 0.00 in 0 W/m2
04:48 48.0 °F 44.6 °F 29.92 in Calm   1.0 mph 88% 0.00 in 0 W/m2
04:54 48.0 °F 44.3 °F 29.92 in Calm     87% 0.00 in 0 W/m2
05:00 48.0 °F 44.3 °F 29.92 in Calm     87% 0.00 in 0 W/m2
05:06 48.0 °F 44.3 °F 29.92 in Calm     87% 0.00 in 0 W/m2
05:12 48.1 °F 44.4 °F 29.93 in Calm     87% 0.00 in 0 W/m2
05:18 48.1 °F 44.4 °F 29.94 in Calm     87% 0.00 in 0 W/m2
05:24 48.0 °F 44.3 °F 29.94 in Calm     87% 0.00 in 0 W/m2
05:30 47.9 °F 44.5 °F 29.94 in Calm     88% 0.00 in 0 W/m2
05:36 47.9 °F 44.5 °F 29.94 in Calm     88% 0.00 in 0 W/m2
05:42 47.8 °F 44.4 °F 29.94 in Calm     88% 0.00 in 7 W/m2
05:48 47.9 °F 44.5 °F 29.95 in Calm     88% 0.00 in 7 W/m2
05:54 48.0 °F 44.9 °F 29.96 in Calm     89% 0.00 in 5 W/m2
06:00 48.2 °F 45.1 °F 29.97 in Calm     89% 0.00 in 0 W/m2
06:06 48.3 °F 45.2 °F 29.97 in Calm     89% 0.00 in 9 W/m2
06:12 48.4 °F 45.6 °F 29.96 in Calm   1.0 mph 90% 0.00 in 16 W/m2
06:18 48.6 °F 45.8 °F 29.96 in WNW 1.0 mph 1.0 mph 90% 0.00 in 25 W/m2
06:24 48.8 °F 46.0 °F 29.96 in WNW 1.0 mph 3.0 mph 90% 0.00 in 28 W/m2
06:30 48.9 °F 46.1 °F 29.97 in WNW 1.0 mph 2.0 mph 90% 0.00 in 44 W/m2
06:36 49.0 °F 46.2 °F 29.97 in WNW 1.0 mph 2.0 mph 90% 0.00 in 53 W/m2
06:42 49.2 °F 46.4 °F 29.97 in Calm   2.0 mph 90% 0.00 in 47 W/m2
06:48 49.4 °F 46.6 °F 29.97 in WNW 1.0 mph 4.0 mph 90% 0.00 in 49 W/m2
06:54 49.5 °F 46.7 °F 29.97 in WNW 1.0 mph 1.0 mph 90% 0.00 in 63 W/m2
07:00 49.6 °F 46.5 °F 29.97 in WNW 1.0 mph 3.0 mph 89% 0.00 in 40 W/m2
07:06 49.7 °F 46.6 °F 29.98 in WNW 1.0 mph 3.0 mph 89% 0.00 in 42 W/m2
07:12 49.8 °F 46.7 °F 29.98 in WNW 1.0 mph 1.0 mph 89% 0.00 in 58 W/m2
07:18 49.9 °F 46.8 °F 29.99 in Calm   1.0 mph 89% 0.00 in 76 W/m2
07:24 50.2 °F 47.1 °F 29.99 in Calm   3.0 mph 89% 0.00 in 84 W/m2
07:30 50.4 °F 47.3 °F 29.99 in WNW 1.0 mph 1.0 mph 89% 0.00 in 105 W/m2
07:36 50.6 °F 47.2 °F 29.99 in WNW 1.0 mph 1.0 mph 88% 0.00 in 111 W/m2
07:42 50.9 °F 47.5 °F 29.99 in WNW 1.0 mph 1.0 mph 88% 0.00 in 127 W/m2
07:48 51.3 °F 47.9 °F 29.99 in Calm   2.0 mph 88% 0.00 in 125 W/m2
07:54 51.4 °F 47.7 °F 29.99 in WNW 1.0 mph 2.0 mph 87% 0.00 in 153 W/m2
08:00 52.6 °F 49.1 °F 30.00 in WNW 1.0 mph 1.0 mph 88% 0.00 in 383 W/m2
08:06 53.3 °F 48.9 °F 29.99 in Calm   1.0 mph 85% 0.00 in 404 W/m2
08:12 54.3 °F 49.9 °F 29.99 in Calm     85% 0.00 in 439 W/m2
08:18 55.1 °F 49.0 °F 29.99 in Calm   3.0 mph 80% 0.00 in 439 W/m2
08:24 55.3 °F 48.6 °F 29.99 in WSW 1.0 mph 2.0 mph 78% 0.00 in 464 W/m2
08:30 55.9 °F 49.1 °F 29.99 in WSW 1.0 mph 1.0 mph 78% 0.00 in 499 W/m2
08:36 56.6 °F 49.5 °F 29.99 in Calm   2.0 mph 77% 0.00 in 543 W/m2
08:42 57.1 °F 49.6 °F 29.99 in West 1.0 mph 1.0 mph 76% 0.00 in 295 W/m2
08:48 57.7 °F 49.1 °F 30.00 in West 1.0 mph 1.0 mph 73% 0.00 in 606 W/m2
09:00 58.7 °F 49.3 °F 29.99 in NW 2.0 mph 2.0 mph 71% 0.00 in 570 W/m2
09:06 59.1 °F 48.5 °F 29.99 in West 1.0 mph 3.0 mph 68% 0.00 in 599 W/m2
09:12 59.3 °F 47.9 °F 29.99 in NNW 1.0 mph 2.0 mph 66% 0.00 in 626 W/m2
09:18 59.7 °F 47.1 °F 29.99 in NNW 1.0 mph 8.0 mph 63% 0.00 in 643 W/m2
09:24 59.9 °F 46.4 °F 29.99 in NW 3.0 mph 4.0 mph 61% 0.00 in 642 W/m2
09:30 60.3 °F 46.8 °F 29.99 in NNW 3.0 mph 3.0 mph 61% 0.00 in 671 W/m2
09:36 60.7 °F 46.3 °F 29.99 in WNW 2.0 mph 5.0 mph 59% 0.00 in 689 W/m2
09:42 60.6 °F 46.6 °F 29.99 in NNW 2.0 mph 3.0 mph 60% 0.00 in 717 W/m2
09:48 60.6 °F 47.9 °F 29.99 in North 2.0 mph 3.0 mph 63% 0.00 in 747 W/m2
09:54 60.8 °F 47.7 °F 29.99 in WNW 3.0 mph 7.0 mph 62% 0.00 in 724 W/m2
10:00 60.8 °F 46.4 °F 29.99 in West 3.0 mph 3.0 mph 59% 0.00 in 738 W/m2
10:06 60.7 °F 46.7 °F 29.99 in NNW 2.0 mph 4.0 mph 60% 0.00 in 754 W/m2
10:12 61.0 °F 46.6 °F 29.98 in NW 3.0 mph 4.0 mph 59% 0.00 in 784 W/m2
10:18 61.4 °F 47.4 °F 29.99 in NW 4.0 mph 6.0 mph 60% 0.00 in 789 W/m2
10:24 61.6 °F 47.6 °F 29.99 in WNW 3.0 mph 4.0 mph 60% 0.00 in 812 W/m2
10:30 61.3 °F 45.9 °F 29.99 in NW 3.0 mph 3.0 mph 57% 0.00 in 840 W/m2
10:36 61.5 °F 45.7 °F 29.99 in NW 3.0 mph 4.0 mph 56% 0.00 in 840 W/m2
10:42 61.5 °F 44.7 °F 29.99 in WNW 3.0 mph 4.0 mph 54% 0.00 in 888 W/m2
10:48 61.5 °F 45.2 °F 29.99 in NW 3.0 mph 4.0 mph 55% 0.00 in 984 W/m2
10:54 61.2 °F 47.6 °F 29.99 in NW 2.0 mph 3.0 mph 61% 0.00 in 960 W/m2
11:00 62.7 °F 46.3 °F 29.99 in NW 2.0 mph 2.0 mph 55% 0.00 in 974 W/m2
11:06 62.2 °F 47.7 °F 29.99 in NNW 3.0 mph 4.0 mph 59% 0.00 in 1041 W/m2
11:12 62.0 °F 46.6 °F 29.99 in WNW 3.0 mph 4.0 mph 57% 0.00 in 1051 W/m2
11:18 62.8 °F 48.3 °F 29.99 in NW 4.0 mph 6.0 mph 59% 0.00 in 946 W/m2
11:24 63.4 °F 48.4 °F 29.99 in West 2.0 mph 3.0 mph 58% 0.00 in 976 W/m2
11:30 63.3 °F 46.4 °F 29.99 in NW 3.0 mph 5.0 mph 54% 0.00 in 991 W/m2
11:36 63.0 °F 44.6 °F 29.99 in NW 4.0 mph 5.0 mph 51% 0.00 in 947 W/m2
11:42 62.6 °F 47.1 °F 29.99 in NW 4.0 mph 4.0 mph 57% 0.00 in 963 W/m2
11:48 63.8 °F 47.8 °F 29.98 in NW 3.0 mph 6.0 mph 56% 0.00 in 958 W/m2
11:54 63.3 °F 44.9 °F 29.99 in North 3.0 mph 8.0 mph 51% 0.00 in 979 W/m2
12:00 63.4 °F 44.4 °F 29.99 in NNW 3.0 mph 4.0 mph 50% 0.00 in 967 W/m2
12:06 63.4 °F 42.8 °F 29.99 in NW 3.0 mph 10.0 mph 47% 0.00 in 993 W/m2
12:12 63.0 °F 42.4 °F 29.98 in NNW 3.0 mph 9.0 mph 47% 0.00 in 965 W/m2
12:24 63.7 °F 44.2 °F 29.98 in NNW 4.0 mph 7.0 mph 49% 0.00 in 977 W/m2
12:30 63.1 °F 40.8 °F 29.98 in NW 5.0 mph 5.0 mph 44% 0.00 in 972 W/m2
12:36 63.6 °F 43.5 °F 29.99 in WSW 4.0 mph 5.0 mph 48% 0.00 in 969 W/m2
12:42 64.2 °F 43.0 °F 29.99 in NNW 3.0 mph 5.0 mph 46% 0.00 in 970 W/m2
12:48 63.6 °F 41.9 °F 29.99 in WNW 3.0 mph 7.0 mph 45% 0.00 in 976 W/m2
12:54 63.6 °F 43.0 °F 29.99 in WNW 3.0 mph 3.0 mph 47% 0.00 in 976 W/m2
13:00 63.2 °F 42.1 °F 29.99 in WNW 4.0 mph 4.0 mph 46% 0.00 in 979 W/m2
13:06 64.0 °F 44.4 °F 29.98 in West 4.0 mph 4.0 mph 49% 0.00 in 974 W/m2
13:12 64.0 °F 42.2 °F 29.99 in NW 3.0 mph 5.0 mph 45% 0.00 in 977 W/m2
13:18 64.1 °F 41.7 °F 29.99 in WNW 3.0 mph 5.0 mph 44% 0.00 in 976 W/m2
13:24 63.9 °F 42.1 °F 29.98 in WSW 3.0 mph 3.0 mph 45% 0.00 in 976 W/m2
13:30 63.8 °F 40.3 °F 29.98 in NNW 3.0 mph 6.0 mph 42% 0.00 in 974 W/m2
13:36 64.5 °F 43.3 °F 29.98 in NW 4.0 mph 6.0 mph 46% 0.00 in 976 W/m2
13:42 64.1 °F 42.3 °F 29.98 in NNW 3.0 mph 5.0 mph 45% 0.00 in 970 W/m2
13:48 63.7 °F 39.5 °F 29.98 in NNW 3.0 mph 8.0 mph 41% 0.00 in 967 W/m2
13:54 63.6 °F 38.8 °F 29.98 in NW 4.0 mph 4.0 mph 40% 0.00 in 965 W/m2
14:00 64.1 °F 41.1 °F 29.98 in NE 3.0 mph 3.0 mph 43% 0.00 in 960 W/m2
14:06 64.1 °F 40.5 °F 29.97 in NNW 4.0 mph 7.0 mph 42% 0.00 in 956 W/m2
14:12 64.1 °F 35.9 °F 29.98 in NNW 5.0 mph 5.0 mph 35% 0.00 in 951 W/m2
14:18 63.9 °F 37.1 °F 29.98 in West 3.0 mph 5.0 mph 37% 0.00 in 939 W/m2
14:24 64.1 °F 36.6 °F 29.97 in NW 3.0 mph 3.0 mph 36% 0.00 in 930 W/m2
14:30 64.7 °F 37.8 °F 29.98 in West 2.0 mph 2.0 mph 37% 0.00 in 923 W/m2
14:36 64.4 °F 38.9 °F 29.98 in NW 3.0 mph 3.0 mph 39% 0.00 in 916 W/m2
14:42 64.4 °F 39.5 °F 29.99 in NNW 3.0 mph 3.0 mph 40% 0.00 in 904 W/m2
14:48 65.3 °F 40.3 °F 29.98 in WNW 3.0 mph 6.0 mph 40% 0.00 in 896 W/m2
14:54 64.9 °F 40.6 °F 29.99 in NNW 4.0 mph 5.0 mph 41% 0.00 in 886 W/m2
15:00 64.3 °F 41.3 °F 29.99 in NW 4.0 mph 4.0 mph 43% 0.00 in 875 W/m2
15:06 65.0 °F 41.3 °F 29.99 in NW 3.0 mph 4.0 mph 42% 0.00 in 868 W/m2
15:12 65.2 °F 40.3 °F 29.98 in NNW 3.0 mph 7.0 mph 40% 0.00 in 856 W/m2
15:18 64.7 °F 38.5 °F 29.99 in NNW 4.0 mph 8.0 mph 38% 0.00 in 840 W/m2
15:24 65.0 °F 40.1 °F 29.99 in NW 4.0 mph 7.0 mph 40% 0.00 in 831 W/m2
15:30 65.2 °F 41.5 °F 29.99 in WNW 3.0 mph 6.0 mph 42% 0.00 in 817 W/m2
15:36 64.9 °F 41.2 °F 29.99 in North 4.0 mph 6.0 mph 42% 0.00 in 809 W/m2
15:42 65.0 °F 38.1 °F 29.99 in NW 4.0 mph 6.0 mph 37% 0.00 in 796 W/m2
15:48 64.7 °F 42.3 °F 29.99 in North 4.0 mph 6.0 mph 44% 0.00 in 780 W/m2
15:54 64.8 °F 40.5 °F 29.99 in NW 3.0 mph 4.0 mph 41% 0.00 in 768 W/m2
16:00 65.4 °F 41.7 °F 29.99 in West 3.0 mph 7.0 mph 42% 0.00 in 758 W/m2
16:06 64.8 °F 39.2 °F 29.99 in North 4.0 mph 7.0 mph 39% 0.00 in 742 W/m2
16:12 64.8 °F 38.6 °F 29.99 in NNW 4.0 mph 7.0 mph 38% 0.00 in 728 W/m2
16:18 65.2 °F 42.1 °F 29.99 in NNW 3.0 mph 7.0 mph 43% 0.00 in 710 W/m2
16:24 64.8 °F 39.9 °F 29.99 in NW 3.0 mph 5.0 mph 40% 0.00 in 696 W/m2
16:30 64.7 °F 39.8 °F 29.99 in NW 5.0 mph 5.0 mph 40% 0.00 in 179 W/m2
16:36 64.7 °F 39.2 °F 29.99 in NNW 4.0 mph 7.0 mph 39% 0.00 in 134 W/m2
16:42 64.6 °F 41.6 °F 29.98 in NW 3.0 mph 3.0 mph 43% 0.00 in 77 W/m2
16:48 65.1 °F 40.2 °F 29.98 in NW 3.0 mph 3.0 mph 40% 0.00 in 107 W/m2
16:54 65.1 °F 39.5 °F 29.98 in NW 3.0 mph 3.0 mph 39% 0.00 in 396 W/m2
17:00 64.9 °F 40.6 °F 29.98 in NNW 2.0 mph 3.0 mph 41% 0.00 in 142 W/m2
17:06 64.9 °F 40.6 °F 29.98 in NNW 3.0 mph 4.0 mph 41% 0.00 in 44 W/m2
17:12 64.9 °F 40.6 °F 29.98 in NW 2.0 mph 3.0 mph 41% 0.00 in 40 W/m2
17:18 65.0 °F 41.3 °F 29.98 in NNW 2.0 mph 4.0 mph 42% 0.00 in 40 W/m2
17:24 65.0 °F 40.1 °F 29.98 in NNW 2.0 mph 6.0 mph 40% 0.00 in 42 W/m2
17:30 64.9 °F 41.2 °F 29.98 in NNW 3.0 mph 3.0 mph 42% 0.00 in 39 W/m2
17:36 64.9 °F 40.0 °F 29.98 in NNW 2.0 mph 3.0 mph 40% 0.00 in 37 W/m2
17:42 64.9 °F 40.6 °F 29.98 in West 2.0 mph 5.0 mph 41% 0.00 in 37 W/m2
17:48 64.8 °F 41.2 °F 29.98 in NNW 2.0 mph 5.0 mph 42% 0.00 in 35 W/m2
17:54 64.6 °F 40.4 °F 29.98 in NNW 2.0 mph 3.0 mph 41% 0.00 in 35 W/m2
18:00 64.7 °F 41.1 °F 29.97 in NW 2.0 mph 3.0 mph 42% 0.00 in 35 W/m2
18:06 64.5 °F 40.9 °F 29.97 in NNW 2.0 mph 4.0 mph 42% 0.00 in 33 W/m2
18:12 64.5 °F 41.5 °F 29.98 in NNW 2.0 mph 4.0 mph 43% 0.00 in 33 W/m2
18:18 64.5 °F 40.3 °F 29.97 in WSW 2.0 mph 4.0 mph 41% 0.00 in 33 W/m2
18:24 64.6 °F 41.6 °F 29.97 in WSW 1.0 mph 2.0 mph 43% 0.00 in 32 W/m2
18:30 64.5 °F 41.5 °F 29.97 in WSW 1.0 mph 1.0 mph 43% 0.00 in 32 W/m2
18:36 64.5 °F 41.5 °F 29.97 in West 1.0 mph 2.0 mph 43% 0.00 in 30 W/m2
18:42 64.5 °F 40.3 °F 29.98 in WSW 1.0 mph 1.0 mph 41% 0.00 in 30 W/m2
18:48 64.6 °F 41.6 °F 29.98 in NW 1.0 mph 1.0 mph 43% 0.00 in 30 W/m2
18:54 64.6 °F 41.0 °F 29.97 in NW 1.0 mph 2.0 mph 42% 0.00 in 28 W/m2
19:00 64.4 °F 40.8 °F 29.98 in NNW 1.0 mph 1.0 mph 42% 0.00 in 28 W/m2
19:06 64.3 °F 42.5 °F 29.97 in Calm   1.0 mph 45% 0.00 in 32 W/m2
19:12 64.1 °F 41.1 °F 29.98 in Calm     43% 0.00 in 25 W/m2
19:18 64.0 °F 42.2 °F 29.98 in NNW 1.0 mph 4.0 mph 45% 0.00 in 23 W/m2
19:24 63.7 °F 40.8 °F 29.98 in NNW 1.0 mph 1.0 mph 43% 0.00 in 25 W/m2
19:30 63.5 °F 42.3 °F 29.98 in Calm     46% 0.00 in 25 W/m2
19:38 63.3 °F 43.3 °F 29.98 in Calm     48% 0.00 in 28 W/m2
19:44 63.3 °F 42.7 °F 29.98 in NW 1.0 mph 1.0 mph 47% 0.00 in 28 W/m2
19:50 63.2 °F 41.5 °F 29.98 in Calm     45% 0.00 in 30 W/m2
19:56 63.0 °F 42.4 °F 29.98 in Calm     47% 0.00 in 21 W/m2
20:02 62.6 °F 42.6 °F 29.98 in Calm     48% 0.00 in 19 W/m2
20:08 62.2 °F 42.8 °F 29.98 in Calm     49% 0.00 in 14 W/m2
20:16 61.6 °F 44.8 °F 29.98 in Calm     54% 0.00 in 12 W/m2
20:22 60.4 °F 45.1 °F 29.98 in Calm     57% 0.00 in 11 W/m2
20:28 59.4 °F 45.1 °F 29.98 in Calm     59% 0.00 in 7 W/m2
20:34 58.9 °F 45.0 °F 29.98 in Calm     60% 0.00 in 5 W/m2
20:40 58.0 °F 45.9 °F 29.98 in Calm     64% 0.00 in 0 W/m2
20:46 57.4 °F 46.1 °F 29.98 in Calm     66% 0.00 in 0 W/m2
20:52 56.8 °F 46.0 °F 29.97 in Calm     67% 0.00 in 0 W/m2
20:58 56.4 °F 46.0 °F 29.97 in Calm     68% 0.00 in 0 W/m2
21:04 56.0 °F 46.4 °F 29.97 in Calm     70% 0.00 in 0 W/m2
21:10 55.5 °F 46.2 °F 29.97 in Calm     71% 0.00 in 0 W/m2
21:16 55.1 °F 45.9 °F 29.97 in Calm     71% 0.00 in 0 W/m2
21:22 54.7 °F 44.7 °F 29.97 in Calm     69% 0.00 in 0 W/m2
21:28 54.4 °F 44.4 °F 29.97 in Calm     69% 0.00 in 0 W/m2
21:34 54.2 °F 45.0 °F 29.97 in Calm     71% 0.00 in 0 W/m2
21:40 53.8 °F 44.2 °F 29.97 in Calm     70% 0.00 in 0 W/m2
21:46 53.5 °F 44.3 °F 29.97 in Calm     71% 0.00 in 0 W/m2
21:52 53.4 °F 45.0 °F 29.97 in Calm     73% 0.00 in 0 W/m2
21:58 53.0 °F 44.6 °F 29.97 in Calm     73% 0.00 in 0 W/m2
22:04 52.9 °F 45.2 °F 29.97 in Calm     75% 0.00 in 0 W/m2
22:10 52.7 °F 45.7 °F 29.98 in Calm     77% 0.00 in 0 W/m2
22:16 52.4 °F 45.7 °F 29.98 in Calm     78% 0.00 in 0 W/m2
22:22 51.9 °F 45.3 °F 29.98 in Calm     78% 0.00 in 0 W/m2
22:28 51.6 °F 45.3 °F 29.98 in Calm     79% 0.00 in 0 W/m2
22:34 51.2 °F 45.2 °F 29.97 in Calm     80% 0.00 in 0 W/m2
22:40 50.9 °F 44.6 °F 29.98 in Calm     79% 0.00 in 0 W/m2
22:46 50.6 °F 44.3 °F 29.98 in Calm     79% 0.00 in 0 W/m2
22:52 50.4 °F 44.1 °F 29.97 in Calm     79% 0.00 in 0 W/m2
22:58 50.3 °F 44.7 °F 29.98 in Calm     81% 0.00 in 0 W/m2
23:04 50.1 °F 44.8 °F 29.97 in Calm     82% 0.00 in 0 W/m2
23:10 50.0 °F 44.7 °F 29.98 in Calm     82% 0.00 in 0 W/m2
23:16 49.8 °F 44.8 °F 29.98 in Calm     83% 0.00 in 0 W/m2
23:22 49.6 °F 44.6 °F 29.98 in Calm     83% 0.00 in 0 W/m2
23:28 49.4 °F 44.8 °F 29.97 in Calm     84% 0.00 in 0 W/m2
23:34 49.3 °F 44.7 °F 29.97 in Calm     84% 0.00 in 0 W/m2
23:40 49.1 °F 44.8 °F 29.97 in Calm     85% 0.00 in 0 W/m2
23:46 48.9 °F 44.6 °F 29.97 in Calm     85% 0.00 in 0 W/m2
23:52 48.8 °F 44.8 °F 29.97 in Calm     86% 0.00 in 0 W/m2
23:58 48.5 °F 44.5 °F 29.98 in Calm     86% 0.00 in 0 W/m2
Country Meadow, Clay, NY, USA
Compliments of Weather Underground - 2 mb